KHSB/HSB METAR and TAF weather

Enter ICAO airport designator
Station Type Date Time Source
KHSB METAR 2022/12/04 11:02 UTC NOAA

KHSB 041102Z AUTO 00000KT 10SM CLR M04/M04 A3039 RMK AO2


Station Type Date Time Source
KHSB Decoded METAR 2022/12/04 11:02 UTC NOAA

Harrisburg, Harrisburg-Raleigh Airport, IL, United States (KHSB) 37-48-41N 088-32-57W
Dec 04, 2022 - 06:02 AM EST / 2022.12.04 1102 UTC
Wind: Calm:0
Visibility: 10 mile(s):0
Sky conditions: clear
Temperature: 24 F (-4 C)
Dew Point: 24 F (-4 C)
Relative Humidity: 100%
Pressure (altimeter): 30.39 in. Hg (1029 hPa)
ob: KHSB 041102Z AUTO 00000KT 10SM CLR M04/M04 A3039 RMK AO2
cycle: 11

Station Type Date Time Source
KHSB TAF UTC NOAA

Error!

Example: see airport list